sensor_id;sensor_type;location;lat;lon;timestamp;P1;durP1;ratioP1;P2;durP2;ratioP2
71777;SDS011;59609;52.430;4.668;2022-11-11T00:01:00;6.30;;;2.40;;
71777;SDS011;59609;52.430;4.668;2022-11-11T00:03:27;8.07;;;2.58;;
71777;SDS011;59609;52.430;4.668;2022-11-11T00:05:53;4.43;;;2.47;;
71777;SDS011;59609;52.430;4.668;2022-11-11T00:08:18;12.38;;;2.70;;
71777;SDS011;59609;52.430;4.668;2022-11-11T00:10:43;6.93;;;2.13;;
71777;SDS011;59609;52.430;4.668;2022-11-11T00:13:09;13.65;;;3.08;;
71777;SDS011;59609;52.430;4.668;2022-11-11T00:15:38;7.13;;;2.72;;
71777;SDS011;59609;52.430;4.668;2022-11-11T00:18:04;10.35;;;2.80;;
71777;SDS011;59609;52.430;4.668;2022-11-11T00:20:48;10.23;;;3.25;;
71777;SDS011;59609;52.430;4.668;2022-11-11T00:23:32;9.07;;;2.90;;
71777;SDS011;59609;52.430;4.668;2022-11-11T00:26:16;6.18;;;3.05;;
71777;SDS011;59609;52.430;4.668;2022-11-11T00:28:41;9.60;;;2.90;;
71777;SDS011;59609;52.430;4.668;2022-11-11T00:31:07;6.10;;;2.42;;
71777;SDS011;59609;52.430;4.668;2022-11-11T00:33:35;9.68;;;2.75;;
71777;SDS011;59609;52.430;4.668;2022-11-11T00:36:00;8.38;;;2.60;;
71777;SDS011;59609;52.430;4.668;2022-11-11T00:38:26;6.50;;;2.05;;
71777;SDS011;59609;52.430;4.668;2022-11-11T00:41:15;4.53;;;1.95;;
71777;SDS011;59609;52.430;4.668;2022-11-11T00:43:42;9.60;;;2.20;;
71777;SDS011;59609;52.430;4.668;2022-11-11T00:46:09;6.45;;;2.67;;
71777;SDS011;59609;52.430;4.668;2022-11-11T00:48:53;8.82;;;2.58;;
71777;SDS011;59609;52.430;4.668;2022-11-11T00:51:37;6.50;;;3.03;;
71777;SDS011;59609;52.430;4.668;2022-11-11T00:54:03;4.97;;;2.88;;
71777;SDS011;59609;52.430;4.668;2022-11-11T00:56:29;9.18;;;3.10;;
71777;SDS011;59609;52.430;4.668;2022-11-11T00:58:54;7.88;;;3.42;;
71777;SDS011;59609;52.430;4.668;2022-11-11T01:01:20;12.57;;;3.83;;
71777;SDS011;59609;52.430;4.668;2022-11-11T01:03:45;10.10;;;3.60;;
71777;SDS011;59609;52.430;4.668;2022-11-11T01:06:11;8.77;;;3.50;;
71777;SDS011;59609;52.430;4.668;2022-11-11T01:08:37;13.30;;;4.63;;
71777;SDS011;59609;52.430;4.668;2022-11-11T01:11:03;10.07;;;4.63;;
71777;SDS011;59609;52.430;4.668;2022-11-11T01:13:29;9.55;;;4.65;;
71777;SDS011;59609;52.430;4.668;2022-11-11T01:16:00;7.72;;;4.28;;
71777;SDS011;59609;52.430;4.668;2022-11-11T01:18:31;10.30;;;4.22;;
71777;SDS011;59609;52.430;4.668;2022-11-11T01:20:58;9.30;;;4.90;;
71777;SDS011;59609;52.430;4.668;2022-11-11T01:23:32;12.82;;;5.13;;
71777;SDS011;59609;52.430;4.668;2022-11-11T01:26:03;10.48;;;4.88;;
71777;SDS011;59609;52.430;4.668;2022-11-11T01:28:30;10.57;;;4.78;;
71777;SDS011;59609;52.430;4.668;2022-11-11T01:31:04;14.60;;;6.35;;
71777;SDS011;59609;52.430;4.668;2022-11-11T01:33:32;13.52;;;5.93;;
71777;SDS011;59609;52.430;4.668;2022-11-11T01:36:02;16.27;;;5.88;;
71777;SDS011;59609;52.430;4.668;2022-11-11T01:38:28;12.55;;;6.50;;
71777;SDS011;59609;52.430;4.668;2022-11-11T01:40:53;12.73;;;6.00;;
71777;SDS011;59609;52.430;4.668;2022-11-11T01:43:20;12.90;;;5.72;;
71777;SDS011;59609;52.430;4.668;2022-11-11T01:51:13;15.52;;;6.30;;
71777;SDS011;59609;52.430;4.668;2022-11-11T01:53:43;13.02;;;6.50;;
71777;SDS011;59609;52.430;4.668;2022-11-11T01:56:12;14.05;;;6.65;;
71777;SDS011;59609;52.430;4.668;2022-11-11T01:58:37;15.07;;;7.15;;
71777;SDS011;59609;52.430;4.668;2022-11-11T02:01:03;17.65;;;7.13;;
71777;SDS011;59609;52.430;4.668;2022-11-11T02:03:29;17.95;;;7.13;;
71777;SDS011;59609;52.430;4.668;2022-11-11T02:05:59;16.00;;;6.47;;
71777;SDS011;59609;52.430;4.668;2022-11-11T02:08:28;14.23;;;6.95;;
71777;SDS011;59609;52.430;4.668;2022-11-11T02:11:11;13.85;;;7.22;;
71777;SDS011;59609;52.430;4.668;2022-11-11T02:13:41;15.45;;;7.53;;
71777;SDS011;59609;52.430;4.668;2022-11-11T02:16:26;16.25;;;7.43;;
71777;SDS011;59609;52.430;4.668;2022-11-11T02:18:52;16.95;;;7.93;;
71777;SDS011;59609;52.430;4.668;2022-11-11T02:21:24;18.17;;;7.50;;
71777;SDS011;59609;52.430;4.668;2022-11-11T02:24:03;20.27;;;9.40;;
71777;SDS011;59609;52.430;4.668;2022-11-11T02:26:34;20.05;;;9.07;;
71777;SDS011;59609;52.430;4.668;2022-11-11T02:29:01;17.13;;;9.02;;
71777;SDS011;59609;52.430;4.668;2022-11-11T02:31:32;20.67;;;8.43;;
71777;SDS011;59609;52.430;4.668;2022-11-11T02:33:57;15.23;;;8.85;;
71777;SDS011;59609;52.430;4.668;2022-11-11T02:36:23;19.33;;;9.02;;
71777;SDS011;59609;52.430;4.668;2022-11-11T02:38:49;23.85;;;10.07;;
71777;SDS011;59609;52.430;4.668;2022-11-11T02:41:15;16.92;;;8.45;;
71777;SDS011;59609;52.430;4.668;2022-11-11T02:43:59;19.10;;;9.05;;
71777;SDS011;59609;52.430;4.668;2022-11-11T02:46:24;18.80;;;9.75;;
71777;SDS011;59609;52.430;4.668;2022-11-11T02:48:50;17.17;;;9.50;;
71777;SDS011;59609;52.430;4.668;2022-11-11T02:51:15;20.83;;;9.50;;
71777;SDS011;59609;52.430;4.668;2022-11-11T02:53:40;18.23;;;8.15;;
71777;SDS011;59609;52.430;4.668;2022-11-11T02:56:06;19.05;;;9.20;;
71777;SDS011;59609;52.430;4.668;2022-11-11T02:58:31;26.15;;;10.82;;
71777;SDS011;59609;52.430;4.668;2022-11-11T03:00:57;21.55;;;9.32;;
71777;SDS011;59609;52.430;4.668;2022-11-11T03:03:22;22.92;;;9.52;;
71777;SDS011;59609;52.430;4.668;2022-11-11T03:05:48;17.98;;;9.73;;
71777;SDS011;59609;52.430;4.668;2022-11-11T03:08:13;23.80;;;10.60;;
71777;SDS011;59609;52.430;4.668;2022-11-11T03:10:38;22.08;;;9.68;;
71777;SDS011;59609;52.430;4.668;2022-11-11T03:13:04;19.90;;;9.90;;
71777;SDS011;59609;52.430;4.668;2022-11-11T03:15:29;24.27;;;10.63;;
71777;SDS011;59609;52.430;4.668;2022-11-11T03:17:54;22.25;;;9.63;;
71777;SDS011;59609;52.430;4.668;2022-11-11T03:20:20;18.00;;;9.82;;
71777;SDS011;59609;52.430;4.668;2022-11-11T03:25:30;22.48;;;11.30;;
71777;SDS011;59609;52.430;4.668;2022-11-11T03:28:09;21.15;;;9.82;;
71777;SDS011;59609;52.430;4.668;2022-11-11T03:30:40;21.58;;;8.98;;
71777;SDS011;59609;52.430;4.668;2022-11-11T03:33:07;23.83;;;10.15;;
71777;SDS011;59609;52.430;4.668;2022-11-11T03:35:33;25.02;;;10.68;;
71777;SDS011;59609;52.430;4.668;2022-11-11T03:37:59;21.52;;;10.30;;
71777;SDS011;59609;52.430;4.668;2022-11-11T03:43:09;18.92;;;9.63;;
71777;SDS011;59609;52.430;4.668;2022-11-11T03:45:35;23.67;;;8.88;;
71777;SDS011;59609;52.430;4.668;2022-11-11T03:48:01;23.40;;;10.18;;
71777;SDS011;59609;52.430;4.668;2022-11-11T03:50:26;19.45;;;9.25;;
71777;SDS011;59609;52.430;4.668;2022-11-11T03:52:51;24.48;;;10.43;;
71777;SDS011;59609;52.430;4.668;2022-11-11T03:55:17;22.50;;;9.98;;
71777;SDS011;59609;52.430;4.668;2022-11-11T03:57:43;22.17;;;10.60;;
71777;SDS011;59609;52.430;4.668;2022-11-11T04:00:10;21.65;;;10.23;;
71777;SDS011;59609;52.430;4.668;2022-11-11T04:02:37;22.15;;;9.95;;
71777;SDS011;59609;52.430;4.668;2022-11-11T04:05:22;24.13;;;10.20;;
71777;SDS011;59609;52.430;4.668;2022-11-11T04:08:13;23.15;;;10.32;;
71777;SDS011;59609;52.430;4.668;2022-11-11T04:10:59;23.00;;;10.38;;
71777;SDS011;59609;52.430;4.668;2022-11-11T04:13:30;24.20;;;10.65;;
71777;SDS011;59609;52.430;4.668;2022-11-11T04:16:16;21.60;;;10.15;;
71777;SDS011;59609;52.430;4.668;2022-11-11T04:18:41;21.33;;;10.65;;
71777;SDS011;59609;52.430;4.668;2022-11-11T04:21:26;24.23;;;10.55;;
71777;SDS011;59609;52.430;4.668;2022-11-11T04:24:10;25.00;;;10.80;;
71777;SDS011;59609;52.430;4.668;2022-11-11T04:26:54;25.40;;;10.02;;
71777;SDS011;59609;52.430;4.668;2022-11-11T04:29:21;21.27;;;9.52;;
71777;SDS011;59609;52.430;4.668;2022-11-11T04:31:56;23.52;;;10.52;;
71777;SDS011;59609;52.430;4.668;2022-11-11T04:34:45;25.70;;;9.95;;
71777;SDS011;59609;52.430;4.668;2022-11-11T04:37:12;23.20;;;10.25;;
71777;SDS011;59609;52.430;4.668;2022-11-11T04:39:38;25.33;;;8.38;;
71777;SDS011;59609;52.430;4.668;2022-11-11T04:42:21;20.52;;;9.75;;
71777;SDS011;59609;52.430;4.668;2022-11-11T04:44:47;24.23;;;10.43;;
71777;SDS011;59609;52.430;4.668;2022-11-11T04:47:32;23.65;;;11.23;;
71777;SDS011;59609;52.430;4.668;2022-11-11T04:49:58;25.70;;;10.23;;
71777;SDS011;59609;52.430;4.668;2022-11-11T04:52:23;18.42;;;9.82;;
71777;SDS011;59609;52.430;4.668;2022-11-11T04:54:52;22.48;;;9.55;;
71777;SDS011;59609;52.430;4.668;2022-11-11T04:57:43;21.70;;;10.07;;
71777;SDS011;59609;52.430;4.668;2022-11-11T05:00:16;26.10;;;10.43;;
71777;SDS011;59609;52.430;4.668;2022-11-11T05:02:42;21.77;;;9.65;;
71777;SDS011;59609;52.430;4.668;2022-11-11T05:05:27;20.73;;;10.68;;
71777;SDS011;59609;52.430;4.668;2022-11-11T05:08:14;25.27;;;10.60;;
71777;SDS011;59609;52.430;4.668;2022-11-11T05:10:58;23.02;;;10.70;;
71777;SDS011;59609;52.430;4.668;2022-11-11T05:13:23;25.23;;;10.40;;
71777;SDS011;59609;52.430;4.668;2022-11-11T05:16:09;24.40;;;9.70;;
71777;SDS011;59609;52.430;4.668;2022-11-11T05:18:59;24.15;;;10.10;;
71777;SDS011;59609;52.430;4.668;2022-11-11T05:21:43;23.88;;;10.63;;
71777;SDS011;59609;52.430;4.668;2022-11-11T05:24:08;21.95;;;11.18;;
71777;SDS011;59609;52.430;4.668;2022-11-11T05:26:52;25.63;;;11.07;;
71777;SDS011;59609;52.430;4.668;2022-11-11T05:29:17;24.80;;;11.65;;
71777;SDS011;59609;52.430;4.668;2022-11-11T05:31:43;25.23;;;11.55;;
71777;SDS011;59609;52.430;4.668;2022-11-11T05:34:08;25.00;;;10.00;;
71777;SDS011;59609;52.430;4.668;2022-11-11T05:36:33;26.95;;;11.90;;
71777;SDS011;59609;52.430;4.668;2022-11-11T05:38:59;22.60;;;9.55;;
71777;SDS011;59609;52.430;4.668;2022-11-11T05:41:24;28.08;;;12.05;;
71777;SDS011;59609;52.430;4.668;2022-11-11T05:43:49;21.05;;;11.88;;
71777;SDS011;59609;52.430;4.668;2022-11-11T05:46:15;30.42;;;11.68;;
71777;SDS011;59609;52.430;4.668;2022-11-11T05:48:40;25.77;;;11.88;;
71777;SDS011;59609;52.430;4.668;2022-11-11T05:51:25;26.73;;;11.77;;
71777;SDS011;59609;52.430;4.668;2022-11-11T05:53:54;25.33;;;11.98;;
71777;SDS011;59609;52.430;4.668;2022-11-11T05:56:21;24.63;;;11.40;;
71777;SDS011;59609;52.430;4.668;2022-11-11T05:58:46;20.55;;;10.85;;
71777;SDS011;59609;52.430;4.668;2022-11-11T06:01:11;25.50;;;11.43;;
71777;SDS011;59609;52.430;4.668;2022-11-11T06:03:37;26.35;;;11.13;;
71777;SDS011;59609;52.430;4.668;2022-11-11T06:06:02;23.45;;;11.00;;
71777;SDS011;59609;52.430;4.668;2022-11-11T06:08:27;26.02;;;12.00;;
71777;SDS011;59609;52.430;4.668;2022-11-11T06:10:53;27.02;;;11.70;;
71777;SDS011;59609;52.430;4.668;2022-11-11T06:13:18;25.58;;;11.07;;
71777;SDS011;59609;52.430;4.668;2022-11-11T06:15:43;23.90;;;13.35;;
71777;SDS011;59609;52.430;4.668;2022-11-11T06:18:09;26.20;;;11.50;;
71777;SDS011;59609;52.430;4.668;2022-11-11T06:20:34;33.22;;;12.90;;
71777;SDS011;59609;52.430;4.668;2022-11-11T06:23:00;28.15;;;14.20;;
71777;SDS011;59609;52.430;4.668;2022-11-11T06:25:27;31.67;;;12.57;;
71777;SDS011;59609;52.430;4.668;2022-11-11T06:28:12;22.80;;;11.38;;
71777;SDS011;59609;52.430;4.668;2022-11-11T06:30:38;27.95;;;13.10;;
71777;SDS011;59609;52.430;4.668;2022-11-11T06:33:04;25.30;;;11.75;;
71777;SDS011;59609;52.430;4.668;2022-11-11T06:35:32;23.23;;;11.52;;
71777;SDS011;59609;52.430;4.668;2022-11-11T06:37:58;22.67;;;11.50;;
71777;SDS011;59609;52.430;4.668;2022-11-11T06:40:24;29.52;;;12.80;;
71777;SDS011;59609;52.430;4.668;2022-11-11T06:42:49;28.38;;;12.82;;
71777;SDS011;59609;52.430;4.668;2022-11-11T06:45:14;29.50;;;13.45;;
71777;SDS011;59609;52.430;4.668;2022-11-11T06:47:41;25.23;;;12.45;;
71777;SDS011;59609;52.430;4.668;2022-11-11T06:50:07;25.17;;;12.90;;
71777;SDS011;59609;52.430;4.668;2022-11-11T06:52:32;26.80;;;12.60;;
71777;SDS011;59609;52.430;4.668;2022-11-11T06:54:58;25.17;;;11.75;;
71777;SDS011;59609;52.430;4.668;2022-11-11T06:57:23;27.75;;;12.20;;
71777;SDS011;59609;52.430;4.668;2022-11-11T06:59:48;31.20;;;13.70;;
71777;SDS011;59609;52.430;4.668;2022-11-11T07:02:14;29.02;;;13.57;;
71777;SDS011;59609;52.430;4.668;2022-11-11T07:04:39;26.45;;;13.25;;
71777;SDS011;59609;52.430;4.668;2022-11-11T07:07:04;25.50;;;12.15;;
71777;SDS011;59609;52.430;4.668;2022-11-11T07:09:30;27.15;;;12.38;;
71777;SDS011;59609;52.430;4.668;2022-11-11T07:11:55;29.75;;;13.43;;
71777;SDS011;59609;52.430;4.668;2022-11-11T07:14:20;27.63;;;13.07;;
71777;SDS011;59609;52.430;4.668;2022-11-11T07:16:46;31.40;;;13.75;;
71777;SDS011;59609;52.430;4.668;2022-11-11T07:19:11;30.58;;;13.98;;
71777;SDS011;59609;52.430;4.668;2022-11-11T07:21:37;28.35;;;11.25;;
71777;SDS011;59609;52.430;4.668;2022-11-11T07:24:02;31.80;;;13.27;;
71777;SDS011;59609;52.430;4.668;2022-11-11T07:26:27;28.17;;;12.52;;
71777;SDS011;59609;52.430;4.668;2022-11-11T07:28:53;26.98;;;13.48;;
71777;SDS011;59609;52.430;4.668;2022-11-11T07:31:18;26.85;;;12.77;;
71777;SDS011;59609;52.430;4.668;2022-11-11T07:33:43;29.27;;;12.77;;
71777;SDS011;59609;52.430;4.668;2022-11-11T07:36:09;29.45;;;13.18;;
71777;SDS011;59609;52.430;4.668;2022-11-11T07:38:34;30.02;;;13.40;;
71777;SDS011;59609;52.430;4.668;2022-11-11T07:40:59;26.73;;;12.48;;
71777;SDS011;59609;52.430;4.668;2022-11-11T07:43:25;33.22;;;13.60;;
71777;SDS011;59609;52.430;4.668;2022-11-11T07:45:50;29.23;;;13.25;;
71777;SDS011;59609;52.430;4.668;2022-11-11T07:48:15;29.73;;;13.75;;
71777;SDS011;59609;52.430;4.668;2022-11-11T07:50:41;25.67;;;12.27;;
71777;SDS011;59609;52.430;4.668;2022-11-11T07:53:06;26.77;;;13.30;;
71777;SDS011;59609;52.430;4.668;2022-11-11T07:55:31;28.25;;;13.35;;
71777;SDS011;59609;52.430;4.668;2022-11-11T07:57:57;28.75;;;13.02;;
71777;SDS011;59609;52.430;4.668;2022-11-11T08:00:22;26.60;;;13.30;;
71777;SDS011;59609;52.430;4.668;2022-11-11T08:02:48;24.00;;;11.93;;
71777;SDS011;59609;52.430;4.668;2022-11-11T08:05:14;27.38;;;13.65;;
71777;SDS011;59609;52.430;4.668;2022-11-11T08:07:39;24.15;;;12.05;;
71777;SDS011;59609;52.430;4.668;2022-11-11T08:10:06;34.13;;;14.05;;
71777;SDS011;59609;52.430;4.668;2022-11-11T08:12:32;28.92;;;14.25;;
71777;SDS011;59609;52.430;4.668;2022-11-11T08:15:16;28.35;;;13.23;;
71777;SDS011;59609;52.430;4.668;2022-11-11T08:17:41;26.33;;;12.18;;
71777;SDS011;59609;52.430;4.668;2022-11-11T08:20:07;25.30;;;11.43;;
71777;SDS011;59609;52.430;4.668;2022-11-11T08:22:34;28.77;;;12.65;;
71777;SDS011;59609;52.430;4.668;2022-11-11T08:25:04;27.77;;;12.65;;
71777;SDS011;59609;52.430;4.668;2022-11-11T08:27:31;31.27;;;13.45;;
71777;SDS011;59609;52.430;4.668;2022-11-11T08:29:58;30.40;;;13.60;;
71777;SDS011;59609;52.430;4.668;2022-11-11T08:32:23;26.95;;;11.43;;
71777;SDS011;59609;52.430;4.668;2022-11-11T08:34:49;30.48;;;12.85;;
71777;SDS011;59609;52.430;4.668;2022-11-11T08:37:14;32.97;;;13.98;;
71777;SDS011;59609;52.430;4.668;2022-11-11T08:39:39;27.25;;;12.75;;
71777;SDS011;59609;52.430;4.668;2022-11-11T08:42:05;29.17;;;14.50;;
71777;SDS011;59609;52.430;4.668;2022-11-11T08:44:31;27.27;;;13.88;;
71777;SDS011;59609;52.430;4.668;2022-11-11T08:46:56;29.38;;;14.38;;
71777;SDS011;59609;52.430;4.668;2022-11-11T08:49:22;25.92;;;11.90;;
71777;SDS011;59609;52.430;4.668;2022-11-11T08:51:47;28.27;;;12.43;;
71777;SDS011;59609;52.430;4.668;2022-11-11T08:54:12;24.13;;;12.85;;
71777;SDS011;59609;52.430;4.668;2022-11-11T08:56:38;26.65;;;12.52;;
71777;SDS011;59609;52.430;4.668;2022-11-11T08:59:04;27.67;;;12.82;;
71777;SDS011;59609;52.430;4.668;2022-11-11T09:01:30;26.70;;;12.27;;
71777;SDS011;59609;52.430;4.668;2022-11-11T09:03:55;25.60;;;12.10;;
71777;SDS011;59609;52.430;4.668;2022-11-11T09:06:20;26.63;;;13.15;;
71777;SDS011;59609;52.430;4.668;2022-11-11T09:08:46;28.00;;;13.80;;
71777;SDS011;59609;52.430;4.668;2022-11-11T09:11:11;28.55;;;14.00;;
71777;SDS011;59609;52.430;4.668;2022-11-11T09:13:36;28.17;;;14.38;;
71777;SDS011;59609;52.430;4.668;2022-11-11T09:16:02;25.88;;;12.95;;
71777;SDS011;59609;52.430;4.668;2022-11-11T09:18:27;29.90;;;13.75;;
71777;SDS011;59609;52.430;4.668;2022-11-11T09:20:56;27.98;;;13.00;;
71777;SDS011;59609;52.430;4.668;2022-11-11T09:23:24;29.60;;;14.23;;
71777;SDS011;59609;52.430;4.668;2022-11-11T09:25:50;26.13;;;14.30;;
71777;SDS011;59609;52.430;4.668;2022-11-11T09:28:16;31.20;;;13.55;;
71777;SDS011;59609;52.430;4.668;2022-11-11T09:30:41;28.92;;;12.88;;
71777;SDS011;59609;52.430;4.668;2022-11-11T09:33:07;30.00;;;13.05;;
71777;SDS011;59609;52.430;4.668;2022-11-11T09:35:33;25.42;;;12.98;;
71777;SDS011;59609;52.430;4.668;2022-11-11T09:38:00;26.35;;;13.15;;
71777;SDS011;59609;52.430;4.668;2022-11-11T09:40:32;24.85;;;11.40;;
71777;SDS011;59609;52.430;4.668;2022-11-11T09:43:21;25.00;;;12.65;;
71777;SDS011;59609;52.430;4.668;2022-11-11T09:46:00;27.20;;;12.27;;
71777;SDS011;59609;52.430;4.668;2022-11-11T09:49:25;27.23;;;12.65;;
71777;SDS011;59609;52.430;4.668;2022-11-11T09:51:29;23.48;;;11.77;;
71777;SDS011;59609;52.430;4.668;2022-11-11T09:54:02;27.75;;;13.32;;
71777;SDS011;59609;52.430;4.668;2022-11-11T09:56:31;25.48;;;12.20;;
71777;SDS011;59609;52.430;4.668;2022-11-11T09:59:03;26.40;;;12.43;;
71777;SDS011;59609;52.430;4.668;2022-11-11T10:01:37;29.48;;;12.57;;
71777;SDS011;59609;52.430;4.668;2022-11-11T10:04:24;22.20;;;11.95;;
71777;SDS011;59609;52.430;4.668;2022-11-11T10:07:05;24.75;;;12.40;;
71777;SDS011;59609;52.430;4.668;2022-11-11T10:09:40;25.60;;;11.57;;
71777;SDS011;59609;52.430;4.668;2022-11-11T10:12:12;25.95;;;12.75;;
71777;SDS011;59609;52.430;4.668;2022-11-11T10:14:44;21.15;;;10.88;;
71777;SDS011;59609;52.430;4.668;2022-11-11T10:22:48;21.10;;;12.13;;
71777;SDS011;59609;52.430;4.668;2022-11-11T10:25:19;20.35;;;10.32;;
71777;SDS011;59609;52.430;4.668;2022-11-11T10:27:46;24.25;;;11.18;;
71777;SDS011;59609;52.430;4.668;2022-11-11T10:32:58;21.73;;;12.32;;
71777;SDS011;59609;52.430;4.668;2022-11-11T10:35:27;21.45;;;10.50;;
71777;SDS011;59609;52.430;4.668;2022-11-11T10:40:51;19.85;;;9.43;;
71777;SDS011;59609;52.430;4.668;2022-11-11T10:46:03;22.33;;;11.57;;
71777;SDS011;59609;52.430;4.668;2022-11-11T10:48:40;21.45;;;11.40;;
71777;SDS011;59609;52.430;4.668;2022-11-11T10:51:07;21.55;;;11.63;;
71777;SDS011;59609;52.430;4.668;2022-11-11T10:53:53;20.77;;;11.52;;
71777;SDS011;59609;52.430;4.668;2022-11-11T10:56:37;20.60;;;10.52;;
71777;SDS011;59609;52.430;4.668;2022-11-11T11:04:18;22.15;;;10.55;;
71777;SDS011;59609;52.430;4.668;2022-11-11T11:06:48;21.77;;;11.02;;
71777;SDS011;59609;52.430;4.668;2022-11-11T11:09:26;21.17;;;11.10;;
71777;SDS011;59609;52.430;4.668;2022-11-11T11:11:59;21.77;;;12.38;;
71777;SDS011;59609;52.430;4.668;2022-11-11T11:14:41;24.00;;;13.30;;
71777;SDS011;59609;52.430;4.668;2022-11-11T11:17:13;25.27;;;13.63;;
71777;SDS011;59609;52.430;4.668;2022-11-11T11:19:41;28.65;;;14.15;;
71777;SDS011;59609;52.430;4.668;2022-11-11T11:22:06;24.65;;;13.43;;
71777;SDS011;59609;52.430;4.668;2022-11-11T11:24:33;25.35;;;14.07;;
71777;SDS011;59609;52.430;4.668;2022-11-11T11:27:04;25.70;;;13.77;;
71777;SDS011;59609;52.430;4.668;2022-11-11T11:29:41;27.83;;;13.70;;
71777;SDS011;59609;52.430;4.668;2022-11-11T11:32:12;24.05;;;11.80;;
71777;SDS011;59609;52.430;4.668;2022-11-11T11:34:45;26.63;;;13.95;;
71777;SDS011;59609;52.430;4.668;2022-11-11T11:37:18;24.98;;;13.52;;
71777;SDS011;59609;52.430;4.668;2022-11-11T11:39:46;23.48;;;13.27;;
71777;SDS011;59609;52.430;4.668;2022-11-11T11:48:15;23.98;;;13.02;;
71777;SDS011;59609;52.430;4.668;2022-11-11T11:51:01;26.67;;;12.30;;
71777;SDS011;59609;52.430;4.668;2022-11-11T11:54:02;25.33;;;13.38;;
71777;SDS011;59609;52.430;4.668;2022-11-11T11:56:41;21.25;;;12.55;;
71777;SDS011;59609;52.430;4.668;2022-11-11T12:19:11;24.42;;;11.35;;
71777;SDS011;59609;52.430;4.668;2022-11-11T12:22:05;24.15;;;12.90;;
71777;SDS011;59609;52.430;4.668;2022-11-11T12:55:16;23.95;;;12.45;;
71777;SDS011;59609;52.430;4.668;2022-11-11T12:58:01;24.98;;;12.50;;
71777;SDS011;59609;52.430;4.668;2022-11-11T13:00:50;21.65;;;12.02;;
71777;SDS011;59609;52.430;4.668;2022-11-11T13:06:20;24.40;;;12.25;;
71777;SDS011;59609;52.430;4.668;2022-11-11T13:09:17;19.00;;;9.93;;
71777;SDS011;59609;52.430;4.668;2022-11-11T13:17:35;21.25;;;11.05;;
71777;SDS011;59609;52.430;4.668;2022-11-11T13:22:48;23.05;;;11.82;;
71777;SDS011;59609;52.430;4.668;2022-11-11T13:25:24;22.95;;;11.98;;
71777;SDS011;59609;52.430;4.668;2022-11-11T13:27:59;24.02;;;11.77;;
71777;SDS011;59609;52.430;4.668;2022-11-11T13:33:24;22.50;;;11.63;;
71777;SDS011;59609;52.430;4.668;2022-11-11T13:36:00;18.15;;;10.13;;
71777;SDS011;59609;52.430;4.668;2022-11-11T13:38:29;19.30;;;9.82;;
71777;SDS011;59609;52.430;4.668;2022-11-11T13:40:59;21.73;;;11.00;;
71777;SDS011;59609;52.430;4.668;2022-11-11T13:43:28;20.10;;;10.20;;
71777;SDS011;59609;52.430;4.668;2022-11-11T13:45:58;19.65;;;10.27;;
71777;SDS011;59609;52.430;4.668;2022-11-11T13:54:19;14.50;;;8.32;;
71777;SDS011;59609;52.430;4.668;2022-11-11T13:56:45;21.02;;;8.38;;
71777;SDS011;59609;52.430;4.668;2022-11-11T14:31:23;19.30;;;9.50;;
71777;SDS011;59609;52.430;4.668;2022-11-11T14:33:46;19.52;;;9.32;;
71777;SDS011;59609;52.430;4.668;2022-11-11T14:42:03;25.05;;;11.10;;
71777;SDS011;59609;52.430;4.668;2022-11-11T14:57:23;24.10;;;10.70;;
71777;SDS011;59609;52.430;4.668;2022-11-11T14:59:52;23.92;;;9.50;;
71777;SDS011;59609;52.430;4.668;2022-11-11T15:02:27;23.42;;;10.50;;
71777;SDS011;59609;52.430;4.668;2022-11-11T15:04:57;23.13;;;11.07;;
71777;SDS011;59609;52.430;4.668;2022-11-11T15:07:28;24.08;;;11.63;;
71777;SDS011;59609;52.430;4.668;2022-11-11T15:12:43;26.33;;;12.93;;
71777;SDS011;59609;52.430;4.668;2022-11-11T15:15:22;25.45;;;12.98;;
71777;SDS011;59609;52.430;4.668;2022-11-11T15:31:19;26.30;;;11.98;;
71777;SDS011;59609;52.430;4.668;2022-11-11T15:42:10;22.35;;;11.00;;
71777;SDS011;59609;52.430;4.668;2022-11-11T15:44:42;20.35;;;10.93;;
71777;SDS011;59609;52.430;4.668;2022-11-11T15:47:10;25.98;;;11.77;;
71777;SDS011;59609;52.430;4.668;2022-11-11T15:49:45;25.80;;;11.07;;
71777;SDS011;59609;52.430;4.668;2022-11-11T15:52:25;24.92;;;11.18;;
71777;SDS011;59609;52.430;4.668;2022-11-11T15:54:51;20.40;;;10.27;;
71777;SDS011;59609;52.430;4.668;2022-11-11T15:59:57;21.25;;;9.95;;
71777;SDS011;59609;52.430;4.668;2022-11-11T16:02:25;19.88;;;9.18;;
71777;SDS011;59609;52.430;4.668;2022-11-11T16:04:58;17.52;;;9.05;;
71777;SDS011;59609;52.430;4.668;2022-11-11T16:07:30;18.45;;;9.73;;
71777;SDS011;59609;52.430;4.668;2022-11-11T16:10:04;20.77;;;9.45;;
71777;SDS011;59609;52.430;4.668;2022-11-11T16:12:36;21.58;;;9.63;;
71777;SDS011;59609;52.430;4.668;2022-11-11T16:15:24;20.95;;;9.48;;
71777;SDS011;59609;52.430;4.668;2022-11-11T16:17:51;22.80;;;9.32;;
71777;SDS011;59609;52.430;4.668;2022-11-11T16:20:24;20.65;;;8.65;;
71777;SDS011;59609;52.430;4.668;2022-11-11T16:23:15;16.20;;;8.32;;
71777;SDS011;59609;52.430;4.668;2022-11-11T16:25:43;20.55;;;8.23;;
71777;SDS011;59609;52.430;4.668;2022-11-11T16:28:10;21.83;;;8.63;;
71777;SDS011;59609;52.430;4.668;2022-11-11T16:30:37;17.77;;;8.48;;
71777;SDS011;59609;52.430;4.668;2022-11-11T16:33:04;22.50;;;8.32;;
71777;SDS011;59609;52.430;4.668;2022-11-11T16:35:42;17.33;;;8.85;;
71777;SDS011;59609;52.430;4.668;2022-11-11T16:38:07;17.77;;;7.75;;
71777;SDS011;59609;52.430;4.668;2022-11-11T16:40:40;14.52;;;7.90;;
71777;SDS011;59609;52.430;4.668;2022-11-11T16:45:48;18.08;;;7.63;;
71777;SDS011;59609;52.430;4.668;2022-11-11T16:48:37;22.33;;;7.43;;
71777;SDS011;59609;52.430;4.668;2022-11-11T16:51:12;14.68;;;6.82;;
71777;SDS011;59609;52.430;4.668;2022-11-11T16:53:39;14.50;;;6.30;;
71777;SDS011;59609;52.430;4.668;2022-11-11T16:56:07;14.25;;;6.88;;
71777;SDS011;59609;52.430;4.668;2022-11-11T16:58:40;17.90;;;7.13;;
71777;SDS011;59609;52.430;4.668;2022-11-11T17:01:05;16.17;;;6.68;;
71777;SDS011;59609;52.430;4.668;2022-11-11T17:03:32;16.23;;;7.30;;
71777;SDS011;59609;52.430;4.668;2022-11-11T17:06:02;14.95;;;7.28;;
71777;SDS011;59609;52.430;4.668;2022-11-11T17:08:31;15.77;;;6.97;;
71777;SDS011;59609;52.430;4.668;2022-11-11T17:10:59;12.85;;;7.68;;
71777;SDS011;59609;52.430;4.668;2022-11-11T17:13:26;13.40;;;6.72;;
71777;SDS011;59609;52.430;4.668;2022-11-11T17:15:55;14.35;;;7.30;;
71777;SDS011;59609;52.430;4.668;2022-11-11T17:18:23;15.50;;;6.57;;
71777;SDS011;59609;52.430;4.668;2022-11-11T17:20:51;12.13;;;5.82;;
71777;SDS011;59609;52.430;4.668;2022-11-11T17:23:16;15.73;;;6.93;;
71777;SDS011;59609;52.430;4.668;2022-11-11T17:25:42;17.00;;;6.35;;
71777;SDS011;59609;52.430;4.668;2022-11-11T17:28:08;14.15;;;5.80;;
71777;SDS011;59609;52.430;4.668;2022-11-11T17:30:37;16.33;;;7.55;;
71777;SDS011;59609;52.430;4.668;2022-11-11T17:33:02;13.10;;;6.70;;
71777;SDS011;59609;52.430;4.668;2022-11-11T17:35:28;11.27;;;6.35;;
71777;SDS011;59609;52.430;4.668;2022-11-11T17:37:54;12.05;;;6.18;;
71777;SDS011;59609;52.430;4.668;2022-11-11T17:40:19;13.10;;;6.20;;
71777;SDS011;59609;52.430;4.668;2022-11-11T17:42:45;10.00;;;5.75;;
71777;SDS011;59609;52.430;4.668;2022-11-11T17:45:11;11.80;;;5.50;;
71777;SDS011;59609;52.430;4.668;2022-11-11T17:47:36;13.52;;;5.85;;
71777;SDS011;59609;52.430;4.668;2022-11-11T17:50:02;13.02;;;6.68;;
71777;SDS011;59609;52.430;4.668;2022-11-11T17:52:27;13.45;;;6.32;;